Tucuma, Brazil
Current Conditions -  °F | °C
As of 1:00 PM on Friday 24 Oct 2014 (Local Time) from SBCJ Reporting Station
Scattered Clouds Scattered Clouds  
Wind Chill: 82°   Ceiling: Unl
Heat Index: 86°   Visibility: 6mi
Dew Point: 70°   Wind: 3mph
Humidity: 66%   Direction: 30°NNE
Pressure: 29.97"   Gusts: NA
Location:  6.75°S, 51.16°W
Report Text: SBCJ 241600Z 03003KT 9999 SCT020 28/21 Q1015
Loading
Personal Weather Stations






























Interactive Weather Map
Tropical Storm Tracking
New forecast layout! Learn more

10-Day Weather Forecast

Advertisements
Track Severe Weather on mobile